createdAt,value
2023-05-23T00:09:48.282Z,16.20
2023-05-23T00:14:50.674Z,16.00
2023-05-23T00:19:52.952Z,15.90
2023-05-23T00:24:54.774Z,15.90
2023-05-23T00:29:56.836Z,15.90
2023-05-23T00:34:58.766Z,16.10
2023-05-23T00:40:01.188Z,16.00
2023-05-23T00:50:11.761Z,15.90
2023-05-23T00:55:14.661Z,15.80
2023-05-23T01:00:17.208Z,15.80
2023-05-23T01:05:20.140Z,15.70
2023-05-23T01:10:27.271Z,15.70
2023-05-23T01:15:51.554Z,15.80
2023-05-23T01:21:01.613Z,15.80
2023-05-23T01:26:18.765Z,15.70
2023-05-23T01:31:21.990Z,15.60
2023-05-23T01:36:23.859Z,15.60
2023-05-23T01:41:26.242Z,15.50
2023-05-23T01:46:29.908Z,15.40
2023-05-23T01:51:32.136Z,15.50
2023-05-23T01:56:34.729Z,15.60
2023-05-23T02:01:38.457Z,15.50
2023-05-23T02:06:41.763Z,15.50
2023-05-23T02:11:43.791Z,15.40
2023-05-23T02:16:46.000Z,15.10
2023-05-23T02:21:47.782Z,15.20
2023-05-23T02:26:49.534Z,15.20
2023-05-23T02:31:51.469Z,15.30
2023-05-23T02:36:54.024Z,15.30
2023-05-23T02:41:55.783Z,15.40
2023-05-23T02:46:57.932Z,15.40
2023-05-23T02:51:59.720Z,15.40
2023-05-23T02:57:01.477Z,15.40
2023-05-23T03:02:03.241Z,15.40
2023-05-23T03:07:11.591Z,15.50
2023-05-23T03:12:18.876Z,15.50
2023-05-23T03:17:21.132Z,15.50
2023-05-23T03:22:22.954Z,15.50
2023-05-23T03:27:24.728Z,15.40
2023-05-23T03:32:26.778Z,15.50
2023-05-23T03:37:28.833Z,15.60
2023-05-23T03:42:31.102Z,15.60
2023-05-23T03:47:32.899Z,15.70
2023-05-23T03:52:34.770Z,15.60
2023-05-23T03:57:36.525Z,15.70
2023-05-23T04:02:40.555Z,15.70
2023-05-23T04:07:43.055Z,15.70
2023-05-23T04:12:45.160Z,15.80
2023-05-23T04:17:46.988Z,15.80
2023-05-23T04:22:48.826Z,15.90
2023-05-23T04:27:50.634Z,16.00
2023-05-23T04:32:53.783Z,16.00
2023-05-23T04:37:56.847Z,16.00
2023-05-23T04:42:58.675Z,16.00
2023-05-23T04:48:00.480Z,16.00
2023-05-23T04:53:02.645Z,15.90
2023-05-23T04:58:04.723Z,16.10
2023-05-23T05:03:06.873Z,16.20
2023-05-23T05:13:10.909Z,16.20
2023-05-23T05:18:13.591Z,16.30
2023-05-23T05:23:16.244Z,16.10
2023-05-23T05:28:18.237Z,16.20
2023-05-23T05:33:23.711Z,16.50
2023-05-23T05:38:25.548Z,16.40
2023-05-23T05:43:27.378Z,16.60
2023-05-23T05:48:29.205Z,16.70
2023-05-23T05:53:31.182Z,16.80
2023-05-23T05:58:33.076Z,16.80
2023-05-23T06:03:35.065Z,16.90
2023-05-23T06:08:37.168Z,16.90
2023-05-23T06:13:39.329Z,17.20
2023-05-23T06:18:41.548Z,17.30
2023-05-23T06:23:43.373Z,17.60
2023-05-23T06:28:45.341Z,17.70
2023-05-23T06:33:47.119Z,17.70
2023-05-23T06:38:48.915Z,17.80
2023-05-23T06:43:50.979Z,17.80
2023-05-23T06:49:02.671Z,17.70
2023-05-23T06:54:08.886Z,18.00
2023-05-23T06:59:11.063Z,17.90
2023-05-23T07:04:12.922Z,17.90
2023-05-23T07:09:14.790Z,18.00
2023-05-23T07:14:16.673Z,18.00
2023-05-23T07:19:18.619Z,18.10
2023-05-23T07:24:20.493Z,17.90
2023-05-23T07:29:22.497Z,17.90
2023-05-23T07:34:24.311Z,17.70
2023-05-23T07:39:27.912Z,17.90
2023-05-23T07:44:29.834Z,18.00
2023-05-23T07:49:31.673Z,18.30
2023-05-23T07:54:33.425Z,18.30
2023-05-23T07:59:36.125Z,18.10
2023-05-23T08:04:38.058Z,18.10
2023-05-23T08:09:40.842Z,17.90
2023-05-23T08:19:51.723Z,17.60
2023-05-23T08:24:53.463Z,17.80
2023-05-23T08:29:55.790Z,17.80
2023-05-23T08:34:57.704Z,18.00
2023-05-23T08:39:59.652Z,18.00
2023-05-23T08:45:01.602Z,18.50
2023-05-23T08:50:06.491Z,18.60
2023-05-23T08:55:09.574Z,18.90
2023-05-23T09:00:15.123Z,18.70
2023-05-23T09:05:17.124Z,18.40
2023-05-23T09:10:22.753Z,18.30
2023-05-23T09:15:26.095Z,18.00
2023-05-23T09:20:28.900Z,18.10
2023-05-23T09:25:30.813Z,18.20
2023-05-23T09:30:35.041Z,18.20
2023-05-23T09:35:43.259Z,18.40
2023-05-23T09:40:45.938Z,18.80
2023-05-23T09:45:48.147Z,19.10
2023-05-23T09:50:51.578Z,19.40
2023-05-23T09:55:56.201Z,19.20
2023-05-23T10:01:03.185Z,19.50
2023-05-23T10:06:10.478Z,19.70
2023-05-23T10:11:16.685Z,19.90
2023-05-23T10:16:34.235Z,20.60
2023-05-23T10:21:48.583Z,20.00
2023-05-23T10:26:50.755Z,21.30
2023-05-23T10:31:53.900Z,22.00
2023-05-23T10:37:05.301Z,20.90
2023-05-23T10:42:17.349Z,21.20
2023-05-23T10:47:31.257Z,20.90
2023-05-23T10:52:41.185Z,20.30
2023-05-23T10:57:44.140Z,19.90
2023-05-23T11:02:59.838Z,19.90
2023-05-23T11:08:16.217Z,19.70
2023-05-23T11:13:18.965Z,20.30
2023-05-23T11:18:31.072Z,20.30
2023-05-23T11:23:43.010Z,21.00
2023-05-23T11:28:58.516Z,21.80
2023-05-23T11:34:01.651Z,22.00
2023-05-23T11:39:04.498Z,20.70
2023-05-23T11:44:13.520Z,20.70
2023-05-23T11:49:15.406Z,20.40
2023-05-23T11:54:17.306Z,20.90
2023-05-23T11:59:19.272Z,22.00
2023-05-23T12:04:21.221Z,22.10
2023-05-23T12:09:23.269Z,21.70
2023-05-23T12:14:29.200Z,21.90
2023-05-23T12:19:31.168Z,21.90
2023-05-23T12:24:33.081Z,21.60
2023-05-23T12:29:37.677Z,21.20
2023-05-23T12:34:43.291Z,21.10
2023-05-23T12:39:47.973Z,20.90
2023-05-23T12:44:54.065Z,20.50
2023-05-23T12:49:56.097Z,20.50
2023-05-23T12:54:57.885Z,20.40
2023-05-23T12:59:59.661Z,20.40
2023-05-23T13:05:01.528Z,20.40
2023-05-23T13:10:03.357Z,21.30
2023-05-23T13:15:06.537Z,20.60
2023-05-23T13:20:09.676Z,20.60
2023-05-23T13:25:12.031Z,20.50
2023-05-23T13:30:14.001Z,20.30
2023-05-23T13:35:16.124Z,20.40
2023-05-23T13:40:19.717Z,20.30
2023-05-23T13:45:23.179Z,20.60
2023-05-23T13:50:25.207Z,20.80
2023-05-23T13:55:27.533Z,20.90
2023-05-23T14:00:30.091Z,20.90
2023-05-23T14:05:32.319Z,20.90
2023-05-23T14:10:34.223Z,20.90
2023-05-23T14:15:38.708Z,20.70
2023-05-23T14:20:40.879Z,20.40
2023-05-23T14:25:46.069Z,20.50
2023-05-23T14:30:47.929Z,20.50
2023-05-23T14:35:50.333Z,20.70
2023-05-23T14:40:52.440Z,21.20
2023-05-23T14:45:54.324Z,21.00
2023-05-23T14:50:56.195Z,21.10
2023-05-23T14:55:57.960Z,22.40
2023-05-23T15:00:59.744Z,22.40
2023-05-23T15:06:01.571Z,22.60
2023-05-23T15:11:03.305Z,23.40
2023-05-23T15:16:05.283Z,23.50
2023-05-23T15:21:07.359Z,22.60
2023-05-23T15:26:09.510Z,21.80
2023-05-23T15:31:11.357Z,21.20
2023-05-23T15:36:13.520Z,21.00
2023-05-23T15:41:16.816Z,20.70
2023-05-23T15:46:18.776Z,20.50
2023-05-23T15:51:23.501Z,20.50
2023-05-23T15:56:26.061Z,20.50
2023-05-23T16:01:27.982Z,20.90
2023-05-23T16:06:29.970Z,20.90
2023-05-23T16:11:31.923Z,20.90
2023-05-23T16:16:34.410Z,20.70
2023-05-23T16:21:36.681Z,20.30
2023-05-23T16:26:39.635Z,20.00
2023-05-23T16:31:41.596Z,20.00
2023-05-23T16:36:43.409Z,19.90
2023-05-23T16:41:45.249Z,20.00
2023-05-23T16:46:47.153Z,19.80
2023-05-23T16:51:48.997Z,19.70
2023-05-23T16:56:50.901Z,19.60
2023-05-23T17:01:53.257Z,19.50
2023-05-23T17:06:55.306Z,19.40
2023-05-23T17:11:57.149Z,19.30
2023-05-23T17:16:58.980Z,19.30
2023-05-23T17:22:01.067Z,19.30
2023-05-23T17:27:04.094Z,19.20
2023-05-23T17:32:06.626Z,19.30
2023-05-23T17:37:08.578Z,18.80
2023-05-23T17:42:10.411Z,18.70
2023-05-23T17:47:12.373Z,18.60
2023-05-23T17:52:14.964Z,18.70
2023-05-23T17:57:17.006Z,18.30
2023-05-23T18:02:18.873Z,18.30
2023-05-23T18:07:20.819Z,18.40
2023-05-23T18:12:22.758Z,18.30
2023-05-23T18:17:25.004Z,17.90
2023-05-23T18:22:27.025Z,18.10
2023-05-23T18:27:28.890Z,18.00
2023-05-23T18:32:31.502Z,17.80
2023-05-23T18:37:33.318Z,17.80
2023-05-23T18:42:35.625Z,17.80
2023-05-23T18:47:37.488Z,17.60
2023-05-23T18:52:39.395Z,17.50
2023-05-23T18:57:41.400Z,17.50
2023-05-23T19:02:45.305Z,17.30
2023-05-23T19:07:47.604Z,17.30
2023-05-23T19:12:49.326Z,17.20
2023-05-23T19:17:51.140Z,17.30
2023-05-23T19:22:53.074Z,17.30
2023-05-23T19:27:54.879Z,17.20
2023-05-23T19:32:56.740Z,16.90
2023-05-23T19:37:58.573Z,17.00
2023-05-23T19:43:00.356Z,16.90
2023-05-23T19:48:02.300Z,17.00
2023-05-23T19:53:04.262Z,16.90
2023-05-23T19:58:06.200Z,16.90
2023-05-23T20:03:08.416Z,16.90
2023-05-23T20:08:10.483Z,16.80
2023-05-23T20:13:12.423Z,16.70
2023-05-23T20:18:14.487Z,16.40
2023-05-23T20:23:16.282Z,16.50
2023-05-23T20:28:18.101Z,16.40
2023-05-23T20:33:20.313Z,16.30
2023-05-23T20:38:24.755Z,16.40
2023-05-23T20:43:26.522Z,16.40
2023-05-23T20:48:28.678Z,16.50
2023-05-23T20:53:31.421Z,16.20
2023-05-23T20:58:33.734Z,16.20
2023-05-23T21:03:35.768Z,16.20
2023-05-23T21:08:37.622Z,16.10
2023-05-23T21:13:40.071Z,16.10
2023-05-23T21:18:41.894Z,16.10
2023-05-23T21:28:46.061Z,16.10
2023-05-23T21:33:48.900Z,15.90
2023-05-23T21:38:50.661Z,15.90
2023-05-23T21:43:52.668Z,15.70
2023-05-23T21:48:54.453Z,15.80
2023-05-23T21:53:56.131Z,15.80
2023-05-23T21:58:57.893Z,15.70
2023-05-23T22:03:59.989Z,15.70
2023-05-23T22:09:01.956Z,15.70
2023-05-23T22:14:04.149Z,15.40
2023-05-23T22:19:07.361Z,15.40
2023-05-23T22:24:09.276Z,15.30
2023-05-23T22:34:13.437Z,15.10
2023-05-23T22:39:15.268Z,15.20
2023-05-23T22:44:17.303Z,15.10
2023-05-23T22:49:22.411Z,15.00
2023-05-23T22:54:24.189Z,15.00
2023-05-23T22:59:26.007Z,15.00
2023-05-23T23:04:30.887Z,14.90
2023-05-23T23:09:34.354Z,14.90
2023-05-23T23:14:36.401Z,14.90
2023-05-23T23:19:38.935Z,14.70
2023-05-23T23:24:40.688Z,14.60
2023-05-23T23:29:42.478Z,14.60
2023-05-23T23:34:44.282Z,14.70
2023-05-23T23:39:46.201Z,14.50
2023-05-23T23:44:48.678Z,14.60
2023-05-23T23:49:50.519Z,14.60
2023-05-23T23:54:52.293Z,14.60
